createdAt,value
2023-03-29T00:01:52.868Z,3.20
2023-03-29T00:04:23.482Z,5.13
2023-03-29T00:06:50.875Z,5.47
2023-03-29T00:09:18.492Z,6.90
2023-03-29T00:11:45.508Z,4.65
2023-03-29T00:14:12.810Z,5.55
2023-03-29T00:16:39.659Z,5.65
2023-03-29T00:19:06.533Z,6.10
2023-03-29T00:21:33.455Z,5.28
2023-03-29T00:24:00.556Z,5.47
2023-03-29T00:26:27.401Z,5.45
2023-03-29T00:28:54.348Z,5.70
2023-03-29T00:31:21.342Z,5.68
2023-03-29T00:33:48.312Z,6.00
2023-03-29T00:36:16.153Z,4.30
2023-03-29T00:38:43.300Z,4.50
2023-03-29T00:41:10.869Z,5.35
2023-03-29T00:43:59.711Z,3.28
2023-03-29T00:46:27.718Z,3.42
2023-03-29T00:48:58.096Z,3.50
2023-03-29T00:51:26.999Z,5.40
2023-03-29T00:53:59.026Z,6.18
2023-03-29T00:56:32.014Z,3.53
2023-03-29T00:59:05.593Z,4.93
2023-03-29T01:01:54.985Z,5.15
2023-03-29T01:04:34.180Z,3.25
2023-03-29T01:07:07.777Z,4.70
2023-03-29T01:09:37.835Z,3.63
2023-03-29T01:12:20.087Z,3.55
2023-03-29T01:15:02.390Z,4.93
2023-03-29T01:17:32.023Z,4.63
2023-03-29T01:22:42.870Z,5.60
2023-03-29T01:25:41.589Z,6.30
2023-03-29T01:28:13.661Z,4.45
2023-03-29T01:30:49.489Z,4.63
2023-03-29T01:33:23.805Z,6.22
2023-03-29T01:36:12.166Z,5.18
2023-03-29T01:38:57.433Z,3.97
2023-03-29T01:41:28.820Z,5.40
2023-03-29T01:43:58.819Z,4.82
2023-03-29T01:46:42.676Z,4.47
2023-03-29T01:49:35.031Z,5.85
2023-03-29T01:52:09.252Z,4.10
2023-03-29T01:54:38.724Z,3.60
2023-03-29T01:59:34.858Z,4.95
2023-03-29T02:02:05.887Z,3.53
2023-03-29T02:04:38.532Z,3.92
2023-03-29T02:07:07.592Z,5.97
2023-03-29T02:09:34.544Z,4.13
2023-03-29T02:12:01.572Z,3.55
2023-03-29T02:14:30.759Z,3.85
2023-03-29T02:16:57.618Z,6.57
2023-03-29T02:19:25.478Z,3.25
2023-03-29T02:22:10.551Z,6.07
2023-03-29T02:24:37.642Z,3.72
2023-03-29T02:27:04.571Z,3.20
2023-03-29T02:29:31.377Z,2.88
2023-03-29T02:32:13.391Z,3.03
2023-03-29T02:35:08.225Z,4.68
2023-03-29T02:37:36.577Z,4.03
2023-03-29T02:40:08.200Z,3.53
2023-03-29T02:42:35.069Z,3.35
2023-03-29T02:45:02.292Z,4.20
2023-03-29T02:47:35.470Z,3.35
2023-03-29T02:50:02.441Z,2.97
2023-03-29T02:52:35.203Z,4.05
2023-03-29T02:55:03.341Z,3.13
2023-03-29T02:57:32.584Z,5.00
2023-03-29T03:00:00.094Z,3.85
2023-03-29T03:02:28.239Z,3.72
2023-03-29T03:04:55.319Z,4.57
2023-03-29T03:07:22.244Z,3.10
2023-03-29T03:09:49.239Z,4.90
2023-03-29T03:12:16.189Z,3.70
2023-03-29T03:14:43.552Z,3.83
2023-03-29T03:17:10.550Z,5.93
2023-03-29T03:19:38.388Z,2.88
2023-03-29T03:22:06.174Z,5.90
2023-03-29T03:24:33.190Z,4.28
2023-03-29T03:27:00.422Z,4.93
2023-03-29T03:29:28.603Z,3.00
2023-03-29T03:31:56.055Z,5.45
2023-03-29T03:34:23.157Z,3.28
2023-03-29T03:36:50.868Z,3.00
2023-03-29T03:39:17.777Z,2.20
2023-03-29T03:41:44.650Z,3.15
2023-03-29T03:44:12.068Z,3.63
2023-03-29T03:46:38.956Z,5.90
2023-03-29T03:49:05.940Z,3.90
2023-03-29T03:51:32.951Z,5.03
2023-03-29T03:53:59.901Z,4.47
2023-03-29T03:56:30.165Z,3.08
2023-03-29T03:58:57.691Z,4.72
2023-03-29T04:01:24.748Z,5.10
2023-03-29T04:03:51.767Z,3.70
2023-03-29T04:06:18.877Z,5.00
2023-03-29T04:08:45.806Z,3.65
2023-03-29T04:11:12.664Z,3.53
2023-03-29T04:13:39.699Z,4.00
2023-03-29T04:16:07.739Z,4.05
2023-03-29T04:18:34.805Z,3.65
2023-03-29T04:21:02.191Z,3.78
2023-03-29T04:23:29.208Z,3.22
2023-03-29T04:25:59.834Z,4.40
2023-03-29T04:28:26.748Z,3.05
2023-03-29T04:30:53.719Z,2.88
2023-03-29T04:33:21.447Z,4.30
2023-03-29T04:35:48.324Z,2.22
2023-03-29T04:38:17.018Z,3.35
2023-03-29T04:40:44.375Z,3.25
2023-03-29T04:43:11.414Z,4.75
2023-03-29T04:45:38.439Z,3.55
2023-03-29T04:48:06.032Z,3.45
2023-03-29T04:50:33.222Z,3.85
2023-03-29T04:53:00.588Z,4.60
2023-03-29T04:55:27.720Z,5.95
2023-03-29T04:57:55.803Z,4.32
2023-03-29T05:00:27.540Z,6.10
2023-03-29T05:02:55.109Z,3.95
2023-03-29T05:05:22.458Z,5.10
2023-03-29T05:07:50.050Z,4.20
2023-03-29T05:10:17.550Z,4.88
2023-03-29T05:12:44.776Z,3.53
2023-03-29T05:15:11.872Z,4.63
2023-03-29T05:17:39.614Z,4.07
2023-03-29T05:20:09.810Z,4.20
2023-03-29T05:22:36.748Z,4.78
2023-03-29T05:25:04.324Z,3.97
2023-03-29T05:27:31.171Z,4.68
2023-03-29T05:29:58.039Z,3.63
2023-03-29T05:32:25.100Z,3.70
2023-03-29T05:34:53.150Z,4.45
2023-03-29T05:37:20.340Z,5.30
2023-03-29T05:39:49.131Z,5.38
2023-03-29T05:42:16.473Z,3.80
2023-03-29T05:44:43.420Z,5.53
2023-03-29T05:47:10.813Z,7.03
2023-03-29T05:49:38.275Z,6.82
2023-03-29T05:52:06.864Z,4.45
2023-03-29T05:54:49.281Z,6.72
2023-03-29T05:57:16.432Z,6.72
2023-03-29T05:59:43.268Z,6.32
2023-03-29T06:02:11.874Z,6.63
2023-03-29T06:04:38.775Z,8.73
2023-03-29T06:07:06.033Z,7.40
2023-03-29T06:09:33.808Z,5.85
2023-03-29T06:12:02.133Z,7.00
2023-03-29T06:14:29.163Z,5.35
2023-03-29T06:16:56.728Z,6.75
2023-03-29T06:19:24.404Z,5.53
2023-03-29T06:21:53.348Z,5.90
2023-03-29T06:24:20.774Z,5.68
2023-03-29T06:26:47.712Z,7.35
2023-03-29T06:29:15.074Z,5.30
2023-03-29T06:31:42.475Z,5.78
2023-03-29T06:34:09.601Z,7.80
2023-03-29T06:36:37.104Z,6.90
2023-03-29T06:39:04.477Z,6.63
2023-03-29T06:41:32.057Z,6.43
2023-03-29T06:43:59.175Z,6.70
2023-03-29T06:46:26.366Z,5.03
2023-03-29T06:48:53.673Z,6.20
2023-03-29T06:51:23.183Z,7.53
2023-03-29T06:53:50.753Z,5.38
2023-03-29T06:56:17.752Z,5.80
2023-03-29T06:58:45.285Z,5.90
2023-03-29T07:01:13.048Z,4.82
2023-03-29T07:03:41.520Z,6.30
2023-03-29T07:06:12.473Z,5.57
2023-03-29T07:08:43.830Z,7.45
2023-03-29T07:11:12.745Z,8.38
2023-03-29T07:13:43.167Z,5.35
2023-03-29T07:16:14.048Z,5.47
2023-03-29T07:18:41.948Z,3.90
2023-03-29T07:21:08.863Z,6.82
2023-03-29T07:23:36.287Z,3.60
2023-03-29T07:26:04.116Z,4.97
2023-03-29T07:28:31.374Z,5.88
2023-03-29T07:31:11.360Z,5.85
2023-03-29T07:33:38.679Z,6.00
2023-03-29T07:36:06.582Z,7.85
2023-03-29T07:38:33.534Z,7.45
2023-03-29T07:41:04.192Z,8.38
2023-03-29T07:43:31.592Z,8.20
2023-03-29T07:46:05.598Z,10.52
2023-03-29T07:48:33.241Z,10.55
2023-03-29T07:51:00.368Z,7.72
2023-03-29T07:53:29.867Z,8.05
2023-03-29T07:55:57.348Z,6.00
2023-03-29T07:58:24.463Z,7.25
2023-03-29T08:00:51.522Z,6.72
2023-03-29T08:03:18.546Z,13.48
2023-03-29T08:05:45.518Z,8.70
2023-03-29T08:08:14.398Z,5.65
2023-03-29T08:10:42.830Z,4.80
2023-03-29T08:13:09.853Z,8.18
2023-03-29T08:15:38.641Z,4.80
2023-03-29T08:18:06.972Z,5.95
2023-03-29T08:20:33.898Z,8.57
2023-03-29T08:23:01.249Z,4.93
2023-03-29T08:25:28.091Z,6.68
2023-03-29T08:27:54.930Z,4.47
2023-03-29T08:30:22.110Z,5.32
2023-03-29T08:32:52.290Z,6.50
2023-03-29T08:35:22.179Z,6.40
2023-03-29T08:37:49.101Z,8.00
2023-03-29T08:40:21.576Z,5.68
2023-03-29T08:43:12.840Z,4.15
2023-03-29T08:45:54.532Z,4.35
2023-03-29T08:48:28.724Z,6.20
2023-03-29T08:51:02.275Z,5.60
2023-03-29T08:53:35.906Z,4.95
2023-03-29T08:56:07.227Z,6.13
2023-03-29T08:58:34.220Z,6.78
2023-03-29T09:01:02.065Z,4.85
2023-03-29T09:03:35.252Z,5.70
2023-03-29T09:06:07.135Z,5.82
2023-03-29T09:08:42.229Z,5.13
2023-03-29T09:11:12.176Z,8.20
2023-03-29T09:13:41.407Z,4.75
2023-03-29T09:16:20.327Z,5.63
2023-03-29T09:18:50.037Z,4.57
2023-03-29T09:21:56.795Z,7.93
2023-03-29T09:24:33.905Z,6.20
2023-03-29T09:27:08.937Z,6.13
2023-03-29T09:29:53.276Z,8.40
2023-03-29T09:32:22.680Z,6.25
2023-03-29T09:35:14.610Z,5.50
2023-03-29T09:37:41.947Z,7.10
2023-03-29T09:40:14.828Z,5.97
2023-03-29T09:42:41.761Z,7.32
2023-03-29T09:45:09.437Z,6.10
2023-03-29T09:48:02.471Z,4.60
2023-03-29T09:50:38.101Z,5.60
2023-03-29T09:53:05.856Z,8.05
2023-03-29T09:55:34.277Z,6.70
2023-03-29T09:58:01.996Z,5.93
2023-03-29T10:00:28.959Z,8.10
2023-03-29T10:02:58.124Z,6.88
2023-03-29T10:05:25.869Z,4.75
2023-03-29T10:07:54.514Z,5.63
2023-03-29T10:10:28.775Z,5.10
2023-03-29T10:13:00.135Z,5.32
2023-03-29T10:15:30.797Z,4.97
2023-03-29T10:17:59.849Z,4.68
2023-03-29T10:22:58.552Z,6.68
2023-03-29T10:25:33.259Z,5.78
2023-03-29T10:28:17.739Z,5.88
2023-03-29T10:30:46.149Z,6.25
2023-03-29T10:33:16.687Z,6.03
2023-03-29T10:35:43.822Z,5.22
2023-03-29T10:38:13.607Z,7.28
2023-03-29T10:40:45.830Z,7.07
2023-03-29T10:43:38.785Z,7.88
2023-03-29T10:46:18.374Z,7.63
2023-03-29T10:48:50.816Z,6.40
2023-03-29T10:51:18.846Z,6.45
2023-03-29T10:53:46.115Z,7.07
2023-03-29T10:56:18.946Z,5.07
2023-03-29T10:58:48.837Z,4.85
2023-03-29T11:01:41.639Z,3.88
2023-03-29T11:04:28.646Z,5.13
2023-03-29T11:07:11.254Z,4.15
2023-03-29T11:09:59.749Z,6.68
2023-03-29T11:13:08.685Z,5.75
2023-03-29T11:15:52.089Z,6.00
2023-03-29T11:18:30.746Z,7.72
2023-03-29T11:21:10.732Z,8.30
2023-03-29T11:24:03.658Z,4.53
2023-03-29T11:26:30.712Z,6.18
2023-03-29T11:29:09.608Z,8.90
2023-03-29T11:34:15.748Z,7.15
2023-03-29T11:36:50.653Z,6.40
2023-03-29T11:39:27.317Z,6.65
2023-03-29T11:41:55.319Z,6.85
2023-03-29T11:44:28.148Z,7.87
2023-03-29T11:47:03.749Z,8.27
2023-03-29T11:49:42.055Z,5.65
2023-03-29T11:52:14.836Z,9.00
2023-03-29T11:55:04.248Z,8.60
2023-03-29T11:57:54.198Z,14.80
2023-03-29T12:00:33.398Z,8.18
2023-03-29T12:03:02.991Z,7.28
2023-03-29T12:05:36.967Z,7.57
2023-03-29T12:08:16.713Z,10.15
2023-03-29T12:10:50.883Z,7.80
2023-03-29T12:13:29.554Z,7.50
2023-03-29T12:15:58.183Z,8.52
2023-03-29T12:18:34.295Z,10.63
2023-03-29T12:21:03.597Z,7.18
2023-03-29T12:23:33.743Z,11.40
2023-03-29T12:26:06.635Z,6.22
2023-03-29T12:28:58.854Z,7.90
2023-03-29T12:31:52.910Z,4.82
2023-03-29T12:34:31.243Z,5.75
2023-03-29T12:37:19.269Z,7.03
2023-03-29T12:39:46.336Z,7.38
2023-03-29T12:42:18.234Z,7.85
2023-03-29T12:44:59.068Z,7.45
2023-03-29T12:47:30.320Z,6.88
2023-03-29T12:49:58.635Z,8.40
2023-03-29T12:52:35.642Z,11.38
2023-03-29T12:55:05.128Z,7.13
2023-03-29T12:57:37.911Z,7.57
2023-03-29T13:00:25.762Z,8.27
2023-03-29T13:03:03.886Z,7.50
2023-03-29T13:05:35.401Z,7.88
2023-03-29T13:08:23.529Z,8.27
2023-03-29T13:10:54.938Z,7.43
2023-03-29T13:13:31.191Z,6.18
2023-03-29T13:16:18.893Z,9.23
2023-03-29T13:19:11.617Z,4.45
2023-03-29T13:22:02.504Z,8.38
2023-03-29T13:24:45.152Z,7.65
2023-03-29T13:27:58.466Z,6.30
2023-03-29T13:30:31.115Z,6.32
2023-03-29T13:33:07.630Z,7.78
2023-03-29T13:35:59.150Z,9.30
2023-03-29T13:38:31.832Z,9.43
2023-03-29T13:41:04.226Z,7.15
2023-03-29T13:43:35.532Z,8.77
2023-03-29T13:46:03.905Z,5.57
2023-03-29T13:48:33.929Z,6.30
2023-03-29T13:51:19.530Z,8.45
2023-03-29T13:54:15.119Z,7.53
2023-03-29T13:57:04.389Z,9.55
2023-03-29T13:59:59.508Z,7.82
2023-03-29T14:02:48.093Z,5.93
2023-03-29T14:05:18.745Z,9.48
2023-03-29T14:07:53.488Z,9.40
2023-03-29T14:10:25.939Z,7.57
2023-03-29T14:12:53.214Z,9.30
2023-03-29T14:15:25.354Z,7.63
2023-03-29T14:17:58.964Z,7.85
2023-03-29T14:20:27.668Z,9.30
2023-03-29T14:22:54.714Z,5.90
2023-03-29T14:25:22.824Z,11.20
2023-03-29T14:27:50.149Z,9.40
2023-03-29T14:30:27.838Z,8.18
2023-03-29T14:32:55.190Z,7.28
2023-03-29T14:35:27.619Z,8.20
2023-03-29T14:37:54.594Z,8.48
2023-03-29T14:40:22.106Z,5.07
2023-03-29T14:42:49.245Z,9.05
2023-03-29T14:45:17.863Z,8.70
2023-03-29T14:47:44.929Z,11.30
2023-03-29T14:50:38.249Z,7.65
2023-03-29T14:53:06.167Z,8.50
2023-03-29T14:55:33.181Z,8.13
2023-03-29T14:58:00.736Z,8.15
2023-03-29T15:00:30.391Z,8.90
2023-03-29T15:02:59.628Z,11.10
2023-03-29T15:05:31.548Z,7.05
2023-03-29T15:07:58.558Z,7.60
2023-03-29T15:10:25.775Z,8.13
2023-03-29T15:12:52.893Z,8.73
2023-03-29T15:15:20.021Z,8.52
2023-03-29T15:17:50.853Z,6.68
2023-03-29T15:20:25.144Z,8.68
2023-03-29T15:23:04.391Z,9.05
2023-03-29T15:25:58.856Z,12.30
2023-03-29T15:28:36.133Z,12.60
2023-03-29T15:31:13.383Z,8.48
2023-03-29T15:33:41.175Z,10.52
2023-03-29T15:36:09.202Z,10.93
2023-03-29T15:38:44.148Z,14.73
2023-03-29T15:41:13.580Z,9.15
2023-03-29T15:43:41.538Z,9.27
2023-03-29T15:46:08.973Z,8.73
2023-03-29T15:48:36.136Z,8.45
2023-03-29T15:51:06.495Z,8.57
2023-03-29T15:53:36.309Z,9.85
2023-03-29T15:56:04.318Z,11.52
2023-03-29T15:58:31.982Z,8.23
2023-03-29T16:01:11.605Z,8.25
2023-03-29T16:03:42.016Z,10.98
2023-03-29T16:06:12.462Z,9.10
2023-03-29T16:08:39.361Z,8.85
2023-03-29T16:11:07.184Z,7.55
2023-03-29T16:13:34.129Z,9.15
2023-03-29T16:16:01.630Z,8.00
2023-03-29T16:18:28.825Z,5.22
2023-03-29T16:20:56.961Z,7.70
2023-03-29T16:23:23.872Z,5.93
2023-03-29T16:25:51.119Z,6.57
2023-03-29T16:28:18.129Z,7.75
2023-03-29T16:30:45.043Z,8.55
2023-03-29T16:33:11.915Z,9.32
2023-03-29T16:35:42.598Z,9.20
2023-03-29T16:38:09.768Z,9.80
2023-03-29T16:40:36.977Z,6.18
2023-03-29T16:43:04.057Z,5.95
2023-03-29T16:45:31.218Z,10.68
2023-03-29T16:47:58.244Z,7.35
2023-03-29T16:50:25.223Z,10.80
2023-03-29T16:52:52.860Z,7.60
2023-03-29T16:55:20.413Z,10.90
2023-03-29T16:57:47.890Z,9.10
2023-03-29T17:00:16.367Z,11.77
2023-03-29T17:02:44.089Z,11.32
2023-03-29T17:05:14.277Z,9.63
2023-03-29T17:07:41.388Z,9.55
2023-03-29T17:10:08.582Z,9.13
2023-03-29T17:12:35.809Z,10.52
2023-03-29T17:15:04.452Z,10.00
2023-03-29T17:17:32.037Z,11.57
2023-03-29T17:19:59.107Z,11.18
2023-03-29T17:22:25.992Z,8.07
2023-03-29T17:24:52.888Z,12.00
2023-03-29T17:27:19.897Z,10.88
2023-03-29T17:29:46.779Z,8.43
2023-03-29T17:32:13.692Z,10.50
2023-03-29T17:34:41.161Z,10.57
2023-03-29T17:37:08.084Z,11.38
2023-03-29T17:39:37.772Z,7.15
2023-03-29T17:42:05.474Z,11.55
2023-03-29T17:44:33.577Z,9.32
2023-03-29T17:47:01.522Z,11.55
2023-03-29T17:49:28.783Z,9.02
2023-03-29T17:51:56.078Z,8.73
2023-03-29T17:54:23.040Z,11.75
2023-03-29T17:56:50.793Z,8.98
2023-03-29T17:59:17.743Z,11.43
2023-03-29T18:01:44.724Z,9.70
2023-03-29T18:04:11.735Z,8.65
2023-03-29T18:06:38.731Z,8.90
2023-03-29T18:09:05.844Z,11.95
2023-03-29T18:11:32.862Z,10.52
2023-03-29T18:14:00.592Z,11.90
2023-03-29T18:16:27.638Z,11.02
2023-03-29T18:18:54.558Z,11.02
2023-03-29T18:21:22.440Z,11.52
2023-03-29T18:23:49.397Z,8.05
2023-03-29T18:26:16.744Z,15.73
2023-03-29T18:28:47.396Z,8.50
2023-03-29T18:31:14.802Z,9.35
2023-03-29T18:33:41.795Z,11.98
2023-03-29T18:36:11.992Z,8.15
2023-03-29T18:38:40.757Z,5.38
2023-03-29T18:41:08.750Z,9.02
2023-03-29T18:43:36.213Z,11.77
2023-03-29T18:46:03.430Z,8.38
2023-03-29T18:48:31.590Z,11.57
2023-03-29T18:50:58.503Z,10.50
2023-03-29T18:53:26.432Z,13.57
2023-03-29T18:55:53.405Z,11.07
2023-03-29T18:58:24.306Z,11.70
2023-03-29T19:00:51.892Z,9.93
2023-03-29T19:03:18.843Z,8.73
2023-03-29T19:05:45.709Z,10.95
2023-03-29T19:08:12.580Z,7.50
2023-03-29T19:10:39.533Z,11.20
2023-03-29T19:13:06.411Z,8.75
2023-03-29T19:15:34.963Z,11.18
2023-03-29T19:18:02.016Z,10.02
2023-03-29T19:20:29.573Z,9.45
2023-03-29T19:22:56.619Z,10.07
2023-03-29T19:25:23.501Z,9.40
2023-03-29T19:27:50.577Z,12.05
2023-03-29T19:30:18.626Z,12.20
2023-03-29T19:32:45.809Z,10.57
2023-03-29T19:35:13.550Z,11.23
2023-03-29T19:37:40.587Z,9.68
2023-03-29T19:40:11.276Z,9.27
2023-03-29T19:42:38.800Z,11.00
2023-03-29T19:45:06.806Z,9.13
2023-03-29T19:47:34.403Z,10.90
2023-03-29T19:50:01.468Z,11.25
2023-03-29T19:52:28.856Z,9.38
2023-03-29T19:54:57.023Z,11.57
2023-03-29T19:57:24.525Z,12.15
2023-03-29T19:59:54.014Z,10.18
2023-03-29T20:02:21.025Z,11.15
2023-03-29T20:04:47.904Z,7.47
2023-03-29T20:07:14.712Z,12.18
2023-03-29T20:09:44.646Z,11.27
2023-03-29T20:12:12.421Z,12.95
2023-03-29T20:14:40.474Z,14.30
2023-03-29T20:17:07.629Z,10.65
2023-03-29T20:19:36.777Z,9.48
2023-03-29T20:22:04.601Z,10.43
2023-03-29T20:24:32.836Z,9.32
2023-03-29T20:26:59.762Z,11.20
2023-03-29T20:29:27.522Z,10.43
2023-03-29T20:31:54.493Z,12.40
2023-03-29T20:34:22.386Z,13.38
2023-03-29T20:36:49.444Z,12.52
2023-03-29T20:39:20.034Z,14.05
2023-03-29T20:41:48.186Z,10.43
2023-03-29T20:44:17.099Z,9.68
2023-03-29T20:46:54.616Z,11.75
2023-03-29T20:49:26.691Z,9.48
2023-03-29T20:51:58.751Z,10.73
2023-03-29T20:54:26.294Z,13.93
2023-03-29T20:56:55.100Z,11.57
2023-03-29T20:59:23.014Z,11.73
2023-03-29T21:01:50.741Z,17.90
2023-03-29T21:04:17.805Z,12.02
2023-03-29T21:06:45.870Z,10.02
2023-03-29T21:09:13.961Z,11.43
2023-03-29T21:11:41.111Z,16.38
2023-03-29T21:14:09.510Z,10.65
2023-03-29T21:16:36.564Z,12.23
2023-03-29T21:19:03.406Z,13.20
2023-03-29T21:21:30.444Z,10.57
2023-03-29T21:23:57.359Z,10.75
2023-03-29T21:26:24.270Z,11.27
2023-03-29T21:28:51.146Z,12.50
2023-03-29T21:31:18.111Z,11.45
2023-03-29T21:33:45.148Z,12.38
2023-03-29T21:36:12.108Z,11.98
2023-03-29T21:38:39.069Z,13.07
2023-03-29T21:41:07.151Z,11.02
2023-03-29T21:43:34.033Z,12.38
2023-03-29T21:46:01.093Z,12.52
2023-03-29T21:48:27.934Z,13.75
2023-03-29T21:50:55.206Z,11.00
2023-03-29T21:53:22.081Z,16.70
2023-03-29T21:55:49.702Z,11.25
2023-03-29T21:58:16.841Z,12.48
2023-03-29T22:00:44.000Z,12.30
2023-03-29T22:03:11.003Z,14.82
2023-03-29T22:05:37.974Z,12.20
2023-03-29T22:08:05.381Z,11.93
2023-03-29T22:10:33.308Z,9.88
2023-03-29T22:13:00.813Z,12.02
2023-03-29T22:15:29.527Z,13.38
2023-03-29T22:17:59.225Z,13.23
2023-03-29T22:20:27.903Z,11.68
2023-03-29T22:22:55.743Z,15.40
2023-03-29T22:25:24.730Z,12.88
2023-03-29T22:27:51.656Z,15.38
2023-03-29T22:30:18.633Z,13.10
2023-03-29T22:32:45.639Z,12.93
2023-03-29T22:35:12.607Z,13.65
2023-03-29T22:37:43.439Z,14.68
2023-03-29T22:40:12.267Z,12.57
2023-03-29T22:42:39.148Z,16.35
2023-03-29T22:45:06.721Z,14.30
2023-03-29T22:47:35.542Z,13.63
2023-03-29T22:50:02.381Z,9.90
2023-03-29T22:52:29.380Z,10.68
2023-03-29T22:54:56.793Z,11.88
2023-03-29T22:57:24.151Z,13.30
2023-03-29T22:59:51.268Z,16.00
2023-03-29T23:02:18.242Z,12.02
2023-03-29T23:04:45.951Z,15.07
2023-03-29T23:07:12.824Z,9.52
2023-03-29T23:09:39.880Z,11.27
2023-03-29T23:12:07.022Z,14.50
2023-03-29T23:14:34.199Z,14.43
2023-03-29T23:17:01.287Z,13.77
2023-03-29T23:19:28.303Z,15.13
2023-03-29T23:21:55.262Z,13.73
2023-03-29T23:24:23.088Z,11.77
2023-03-29T23:26:50.002Z,14.52
2023-03-29T23:29:16.892Z,13.75
2023-03-29T23:31:44.621Z,13.20
2023-03-29T23:34:13.642Z,13.95
2023-03-29T23:36:40.673Z,13.20
2023-03-29T23:39:08.178Z,12.13
2023-03-29T23:41:35.243Z,12.68
2023-03-29T23:44:03.760Z,14.45
2023-03-29T23:46:31.531Z,13.63
2023-03-29T23:48:58.547Z,10.88
2023-03-29T23:51:28.705Z,14.13
2023-03-29T23:53:56.097Z,10.57
2023-03-29T23:56:23.182Z,10.95
2023-03-29T23:58:50.116Z,14.45
